Time;durP1;ratioP1;P1;durP2;ratioP2;P2;SDS_P1;SDS_P2;PMS_P1;PMS_P2;Temp;Humidity;BMP_temperature;BMP_pressure;BME280_temperature;BME280_humidity;BME280_pressure;Samples;Min_cycle;Max_cycle;Signal;HPM_P1;HPM_P2
2023/03/27 00:01:36;;;;;;;2.85;1.20;;;14.70;73.50;;;;;;10449205;28;20423;-55
2023/03/27 00:06:36;;;;;;;1.90;0.80;;;14.70;73.70;;;;;;10448408;28;20025;-54
2023/03/27 00:11:37;;;;;;;1.90;0.73;;;14.70;73.00;;;;;;10430733;28;20498;-56
2023/03/27 00:16:38;;;;;;;3.72;1.20;;;14.70;73.50;;;;;;10449170;28;20626;-56
2023/03/27 00:21:39;;;;;;;2.08;1.15;;;14.70;73.00;;;;;;10449268;28;20017;-56
2023/03/27 00:26:41;;;;;;;2.13;1.42;;;14.70;73.40;;;;;;10447829;28;20521;-56
2023/03/27 00:31:42;;;;;;;3.20;1.25;;;14.70;73.30;;;;;;10447952;28;20673;-56
2023/03/27 00:36:47;;;;;;;3.10;0.90;;;14.70;73.30;;;;;;10430594;28;20025;-56
2023/03/27 00:41:47;;;;;;;2.60;0.85;;;14.60;73.30;;;;;;10446987;28;20033;-57
2023/03/27 00:46:48;;;;;;;2.58;0.75;;;14.60;72.70;;;;;;10448088;28;20045;-55
2023/03/27 00:51:51;;;;;;;1.60;1.00;;;14.60;72.90;;;;;;10446221;28;20364;-55
2023/03/27 00:57:00;;;;;;;2.97;1.00;;;14.60;73.40;;;;;;10433323;28;20031;-56
2023/03/27 01:02:03;;;;;;;2.17;0.60;;;14.60;73.40;;;;;;10447300;28;20473;-56
2023/03/27 01:07:06;;;;;;;2.08;0.60;;;14.60;73.00;;;;;;10446941;28;20453;-56
2023/03/27 01:12:09;;;;;;;2.08;0.85;;;14.60;73.40;;;;;;10445652;28;20040;-55
2023/03/27 01:17:19;;;;;;;3.60;0.88;;;14.60;73.30;;;;;;10446669;28;20578;-55
2023/03/27 01:23:10;;;;;;;;;;;14.60;72.80;;;;;;10446781;28;20029;-55
2023/03/27 01:28:39;;;;;;;;;;;14.60;72.40;;;;;;10425008;28;19925;-55
2023/03/27 01:34:19;;;;;;;2.30;0.70;;;14.50;72.90;;;;;;10446442;28;19919;-56
2023/03/27 01:40:00;;;;;;;1.45;0.73;;;14.50;72.80;;;;;;10444955;28;20354;-56
2023/03/27 01:45:18;;;;;;;3.45;1.38;;;14.60;77.00;;;;;;10444637;28;20079;-56
2023/03/27 01:50:55;;;;;;;1.98;0.93;;;14.70;75.90;;;;;;10444059;28;20147;-57
2023/03/27 01:56:24;;;;;;;1.98;0.75;;;14.70;75.80;;;;;;10437314;28;20033;-55
2023/03/27 02:01:34;;;;;;;3.55;1.02;;;14.70;75.60;;;;;;10449775;28;20685;-54
2023/03/27 02:06:42;;;;;;;1.65;0.70;;;14.70;75.70;;;;;;10444759;28;20032;-55
2023/03/27 02:11:51;;;;;;;2.28;0.77;;;14.60;75.20;;;;;;10444084;28;20123;-56
2023/03/27 02:17:01;;;;;;;2.13;0.95;;;14.60;75.20;;;;;;10444386;28;20052;-57
2023/03/27 02:22:02;;;;;;;1.65;0.90;;;14.60;75.20;;;;;;10444688;28;20025;-56
2023/03/27 02:27:26;;;;;;;1.98;0.70;;;14.60;75.00;;;;;;10444031;28;20017;-56
2023/03/27 02:32:57;;;;;;;2.35;0.70;;;14.60;74.90;;;;;;10444463;28;20025;-56
2023/03/27 02:38:07;;;;;;;2.75;0.70;;;14.50;74.80;;;;;;10437064;28;20021;-55
2023/03/27 02:43:25;;;;;;;2.33;1.52;;;14.60;74.80;;;;;;10451867;28;20028;-55
2023/03/27 02:48:37;;;;;;;1.42;1.13;;;14.70;74.40;;;;;;10435492;28;20040;-56
2023/03/27 02:53:46;;;;;;;1.52;0.63;;;15.00;73.40;;;;;;10451119;28;20033;-56
2023/03/27 02:59:17;;;;;;;1.23;0.70;;;15.10;72.90;;;;;;10452219;28;20091;-56
2023/03/27 03:04:30;;;;;;;1.20;0.43;;;15.20;72.50;;;;;;10449119;28;20771;-55
2023/03/27 03:09:31;;;;;;;1.20;0.45;;;15.60;71.00;;;;;;10450793;28;20052;-56
2023/03/27 03:14:36;;;;;;;1.52;0.50;;;15.80;70.10;;;;;;10450107;28;20056;-56
2023/03/27 03:19:37;;;;;;;3.35;0.65;;;16.10;69.40;;;;;;10450734;28;20045;-56
2023/03/27 03:24:40;;;;;;;1.98;0.50;;;16.20;68.90;;;;;;10449829;28;20128;-56
2023/03/27 03:29:43;;;;;;;4.05;0.60;;;16.50;68.30;;;;;;10449783;28;20159;-55
2023/03/27 03:34:45;;;;;;;0.65;0.40;;;16.60;67.80;;;;;;10450949;28;20095;-57
2023/03/27 03:39:46;;;;;;;0.70;0.38;;;16.70;67.70;;;;;;10450441;28;20059;-56
2023/03/27 03:44:46;;;;;;;2.35;0.60;;;16.70;67.60;;;;;;10448621;28;20460;-56
2023/03/27 03:49:47;;;;;;;1.52;0.30;;;16.70;67.50;;;;;;10448567;28;20045;-56
2023/03/27 03:54:48;;;;;;;1.13;0.38;;;16.80;67.30;;;;;;10454643;28;20068;-55
2023/03/27 03:59:48;;;;;;;0.77;0.38;;;16.80;67.20;;;;;;10449915;28;20108;-56
2023/03/27 04:04:49;;;;;;;1.80;0.40;;;16.80;67.10;;;;;;10448491;28;20507;-56
2023/03/27 04:09:50;;;;;;;1.33;0.30;;;16.90;67.10;;;;;;10448167;28;20128;-56
2023/03/27 04:14:52;;;;;;;1.17;0.38;;;16.90;67.20;;;;;;10431361;28;20051;-55
2023/03/27 04:19:53;;;;;;;0.80;0.40;;;16.90;67.30;;;;;;10448972;28;20022;-56
2023/03/27 04:24:53;;;;;;;1.13;0.30;;;16.90;67.30;;;;;;10448660;28;20040;-57
2023/03/27 04:29:54;;;;;;;1.13;0.30;;;16.80;67.60;;;;;;10447219;28;20589;-55
2023/03/27 04:34:55;;;;;;;1.75;0.90;;;16.70;68.00;;;;;;10447331;28;20545;-56
2023/03/27 04:39:57;;;;;;;1.48;1.38;;;16.70;68.20;;;;;;10446980;28;20155;-56
2023/03/27 04:44:57;;;;;;;0.88;0.40;;;16.50;68.50;;;;;;10448001;28;20074;-56
2023/03/27 04:49:58;;;;;;;3.38;1.10;;;16.40;69.00;;;;;;10446433;28;20179;-56
2023/03/27 04:55:00;;;;;;;0.73;0.47;;;16.40;68.90;;;;;;10446208;28;20120;-56
2023/03/27 05:00:13;;;;;;;1.38;0.90;;;16.30;69.10;;;;;;10443387;28;20021;-55
2023/03/27 05:05:15;;;;;;;5.68;1.02;;;16.40;69.20;;;;;;10445531;28;20009;-54
2023/03/27 05:10:16;;;;;;;4.38;0.90;;;16.40;69.20;;;;;;10443719;28;20558;-55
2023/03/27 05:15:18;;;;;;;4.35;1.10;;;16.50;69.30;;;;;;10442033;28;20049;-54
2023/03/27 05:20:20;;;;;;;3.60;1.00;;;16.40;69.70;;;;;;10439054;28;20112;-53
2023/03/27 05:25:23;;;;;;;5.25;1.35;;;16.50;70.30;;;;;;10435412;28;20025;-54
2023/03/27 05:30:25;;;;;;;8.10;1.83;;;16.60;70.60;;;;;;10445002;28;20100;-55
2023/03/27 05:35:29;;;;;;;3.03;1.00;;;16.60;71.10;;;;;;10444150;28;20013;-51
2023/03/27 05:40:30;;;;;;;7.65;1.40;;;16.60;70.50;;;;;;10456343;28;20240;-55
2023/03/27 05:45:32;;;;;;;11.00;1.60;;;16.60;71.90;;;;;;10443977;28;20044;-56
2023/03/27 05:50:34;;;;;;;8.10;1.58;;;16.40;71.20;;;;;;10445170;28;20017;-56
2023/03/27 05:55:37;;;;;;;6.97;1.77;;;16.30;71.90;;;;;;10445482;28;20037;-56
2023/03/27 06:00:41;;;;;;;11.77;1.77;;;16.40;71.40;;;;;;10446168;28;20104;-53
2023/03/27 06:05:42;;;;;;;7.05;1.67;;;16.40;71.00;;;;;;10442427;28;20021;-56
2023/03/27 06:10:43;;;;;;;15.98;1.77;;;16.30;70.80;;;;;;10446531;28;20033;-52
2023/03/27 06:15:44;;;;;;;9.85;2.30;;;16.20;70.50;;;;;;10452265;28;20779;-55
2023/03/27 06:20:45;;;;;;;10.52;1.75;;;16.30;70.10;;;;;;10455791;28;20635;-54
2023/03/27 06:25:46;;;;;;;17.63;2.00;;;16.30;70.00;;;;;;10441832;28;20032;-53
2023/03/27 06:30:48;;;;;;;15.40;2.38;;;16.10;70.10;;;;;;10450665;28;20025;-57
2023/03/27 06:35:49;;;;;;;10.25;1.55;;;16.10;70.20;;;;;;10451202;28;20065;-57
2023/03/27 06:40:50;;;;;;;6.40;1.30;;;16.20;70.40;;;;;;10449538;28;20100;-55
2023/03/27 06:45:52;;;;;;;10.40;1.40;;;16.10;70.60;;;;;;10446600;28;20051;-55
2023/03/27 06:50:52;;;;;;;5.97;1.15;;;16.20;70.40;;;;;;10449811;28;20027;-55
2023/03/27 06:55:54;;;;;;;7.95;1.80;;;16.20;69.60;;;;;;10434029;28;20663;-55
2023/03/27 07:00:54;;;;;;;8.77;1.65;;;16.20;69.40;;;;;;10447256;28;20029;-55
2023/03/27 07:05:55;;;;;;;10.18;1.95;;;16.20;69.10;;;;;;10465379;28;20108;-56
2023/03/27 07:10:56;;;;;;;5.65;1.63;;;16.20;69.20;;;;;;10427951;28;20444;-53
2023/03/27 07:15:56;;;;;;;12.85;2.25;;;16.20;69.30;;;;;;10447145;28;20021;-54
2023/03/27 07:20:57;;;;;;;9.55;1.85;;;16.20;69.00;;;;;;10448193;28;20039;-56
2023/03/27 07:26:00;;;;;;;10.23;1.42;;;16.10;69.00;;;;;;10451334;28;20052;-55
2023/03/27 07:31:10;;;;;;;5.75;1.27;;;16.10;68.90;;;;;;10449975;28;20041;-56
2023/03/27 07:36:11;;;;;;;5.40;1.10;;;16.20;68.70;;;;;;10451447;28;20536;-55
2023/03/27 07:41:12;;;;;;;4.00;1.38;;;16.20;68.70;;;;;;10450882;28;20571;-55
2023/03/27 07:46:13;;;;;;;4.40;1.48;;;16.20;68.50;;;;;;10448966;28;20102;-55
2023/03/27 07:51:14;;;;;;;6.43;1.30;;;16.20;68.40;;;;;;10448042;28;20121;-55
2023/03/27 07:56:14;;;;;;;5.95;1.58;;;16.20;68.60;;;;;;10450596;28;20699;-55
2023/03/27 08:01:15;;;;;;;6.03;1.33;;;16.10;68.50;;;;;;10447540;28;20048;-54
2023/03/27 08:06:16;;;;;;;6.10;1.30;;;16.20;68.50;;;;;;10447989;28;20151;-58
2023/03/27 08:11:17;;;;;;;5.55;1.50;;;16.20;68.50;;;;;;10449178;28;20087;-58
2023/03/27 08:16:18;;;;;;;6.93;1.65;;;16.00;68.60;;;;;;10448216;28;20100;-58
2023/03/27 08:21:19;;;;;;;3.60;1.30;;;16.00;68.60;;;;;;10448106;28;20638;-58
2023/03/27 08:26:20;;;;;;;3.65;0.88;;;16.00;68.40;;;;;;11530076;22;20053;-52
2023/03/27 11:05:36;;;;;;;5.03;0.70;;;15.50;69.40;;;;;;10509670;27;20343;-54
2023/03/27 11:10:43;;;;;;;4.15;1.05;;;15.50;69.80;;;;;;10482464;28;20477;-55
2023/03/27 11:16:08;;;;;;;4.75;0.95;;;15.60;69.70;;;;;;10493512;28;20100;-55
2023/03/27 11:21:34;;;;;;;4.20;0.98;;;15.50;70.00;;;;;;10478177;28;20041;-53
2023/03/27 11:27:17;;;;;;;6.38;1.05;;;15.50;70.20;;;;;;10463616;28;20084;-56
2023/03/27 11:32:54;;;;;;;16.73;1.55;;;15.60;69.90;;;;;;10439074;28;20079;-52
2023/03/27 11:38:06;;;;;;;10.95;1.55;;;15.50;70.00;;;;;;10438907;28;20029;-53
2023/03/27 11:43:13;;;;;;;11.73;1.90;;;15.60;70.10;;;;;;10438484;28;20083;-52
2023/03/27 11:48:45;;;;;;;7.15;1.25;;;15.60;69.90;;;;;;10436990;28;20024;-52
2023/03/27 11:54:19;;;;;;;4.68;1.13;;;15.60;69.80;;;;;;10436623;28;20021;-53
2023/03/27 11:59:55;;;;;;;7.88;1.13;;;15.60;69.80;;;;;;10438620;28;20009;-50
2023/03/27 12:05:44;;;;;;;6.85;1.30;;;15.60;69.50;;;;;;10435202;28;20116;-54
2023/03/27 12:10:48;;;;;;;11.93;1.52;;;15.50;69.50;;;;;;10435374;28;20418;-56
2023/03/27 12:16:14;;;;;;;6.97;1.30;;;15.40;68.70;;;;;;10414245;28;20022;-55
2023/03/27 12:21:57;;;;;;;8.20;1.10;;;15.30;69.10;;;;;;10410999;28;20034;-52
2023/03/27 12:27:11;;;;;;;5.85;1.20;;;15.30;69.50;;;;;;10410607;28;20066;-53
2023/03/27 12:32:39;;;;;;;6.07;0.98;;;15.30;69.40;;;;;;10410522;28;20770;-52
2023/03/27 12:38:11;;;;;;;21.27;2.00;;;15.30;69.40;;;;;;10409399;28;20045;-52
2023/03/27 12:43:20;;;;;;;32.60;6.90;;;15.40;69.30;;;;;;10388308;28;20513;-52
2023/03/27 12:48:21;;;;;;;;;;;15.50;69.60;;;;;;10310537;28;20547;-50
2023/03/27 12:53:46;;;;;;;33.17;4.10;;;15.70;69.70;;;;;;10327048;28;19984;-53
2023/03/27 12:58:50;;;;;;;20.13;3.15;;;15.70;69.70;;;;;;10327937;28;20042;-49
2023/03/27 13:04:24;;;;;;;29.10;3.47;;;15.70;69.30;;;;;;10327340;28;20042;-52
2023/03/27 13:09:54;;;;;;;15.13;2.60;;;15.60;69.80;;;;;;10326701;28;20050;-54
2023/03/27 13:15:19;;;;;;;45.20;4.30;;;15.60;69.60;;;;;;10326261;28;20113;-53
2023/03/27 13:20:34;;;;;;;31.85;4.75;;;15.60;69.90;;;;;;10326157;28;20109;-55
2023/03/27 13:25:59;;;;;;;38.75;5.13;;;15.70;70.10;;;;;;10325656;28;20015;-53
2023/03/27 13:31:03;;;;;;;28.33;5.10;;;15.70;70.20;;;;;;10325604;28;20038;-56
2023/03/27 13:36:11;;;;;;;20.00;4.13;;;15.70;70.20;;;;;;10324957;28;20022;-53
2023/03/27 13:41:42;;;;;;;27.92;5.40;;;15.70;69.80;;;;;;10326031;28;20511;-54
2023/03/27 13:47:24;;;;;;;32.05;4.72;;;15.80;69.50;;;;;;10325982;28;20088;-53
2023/03/27 13:53:13;;;;;;;11.02;2.20;;;15.80;69.00;;;;;;10310070;28;20085;-55
2023/03/27 13:58:49;;;;;;;19.45;3.08;;;15.90;68.80;;;;;;10287922;28;20041;-53
2023/03/27 14:04:38;;;;;;;12.88;2.42;;;15.90;68.70;;;;;;10317704;28;20113;-57
2023/03/27 14:10:17;;;;;;;17.90;3.80;;;15.80;67.80;;;;;;10302253;28;20030;-56
2023/03/27 14:15:39;;;;;;;21.83;4.07;;;15.70;67.70;;;;;;10323946;28;20048;-55
2023/03/27 14:20:49;;;;;;;12.52;2.70;;;15.70;67.90;;;;;;10323463;28;20061;-55
2023/03/27 14:26:18;;;;;;;12.13;2.40;;;15.80;67.90;;;;;;10321922;28;20025;-57
2023/03/27 14:31:21;;;;;;;8.70;1.85;;;15.80;67.80;;;;;;10319681;28;20026;-55
2023/03/27 14:36:25;;;;;;;11.05;2.50;;;15.90;67.80;;;;;;10323656;28;20573;-53
2023/03/27 14:41:25;;;;;;;11.15;2.67;;;15.90;68.00;;;;;;10324018;28;20126;-53
2023/03/27 14:46:26;;;;;;;14.20;2.60;;;15.90;67.90;;;;;;10322600;28;20018;-55
2023/03/27 14:51:36;;;;;;;25.20;3.05;;;16.00;67.80;;;;;;10306219;28;20030;-55
2023/03/27 14:56:46;;;;;;;22.40;4.22;;;15.90;68.40;;;;;;10314919;28;20022;-56
2023/03/27 15:01:48;;;;;;;21.27;3.00;;;15.80;68.80;;;;;;10319123;28;20054;-55
2023/03/27 15:06:49;;;;;;;17.30;3.45;;;15.70;69.00;;;;;;10326463;28;20031;-55
2023/03/27 15:11:54;;;;;;;17.80;2.97;;;15.70;68.90;;;;;;10319339;28;20105;-55
2023/03/27 15:17:05;;;;;;;16.20;2.28;;;15.80;68.90;;;;;;10315604;28;20039;-56
2023/03/27 15:22:17;;;;;;;9.57;2.28;;;15.70;67.90;;;;;;10326181;28;20038;-56
2023/03/27 15:27:22;;;;;;;8.77;2.08;;;15.70;67.70;;;;;;10308566;28;20255;-54
2023/03/27 15:32:29;;;;;;;5.82;1.30;;;15.70;66.80;;;;;;10332163;28;20117;-53
2023/03/27 15:37:31;;;;;;;7.03;1.50;;;15.70;66.20;;;;;;10319875;28;20030;-56
2023/03/27 15:42:49;;;;;;;5.40;1.63;;;15.60;66.00;;;;;;10319429;28;20039;-56
2023/03/27 15:48:01;;;;;;;7.07;1.58;;;15.50;65.90;;;;;;10320046;28;20102;-54
2023/03/27 15:53:02;;;;;;;3.70;0.77;;;15.50;65.70;;;;;;10343592;28;20048;-52
2023/03/27 15:58:25;;;;;;;6.15;1.50;;;15.50;65.60;;;;;;10327481;28;20022;-57
2023/03/27 16:03:33;;;;;;;9.68;1.40;;;15.80;68.80;;;;;;10333171;28;20068;-53
2023/03/27 16:08:37;;;;;;;9.32;1.30;;;15.70;66.80;;;;;;10327801;28;20018;-55
2023/03/27 16:13:57;;;;;;;7.05;1.08;;;15.80;67.50;;;;;;10329272;28;20028;-55
2023/03/27 16:19:10;;;;;;;8.65;2.35;;;16.00;66.80;;;;;;10329601;28;20113;-55
2023/03/27 16:24:10;;;;;;;16.25;2.65;;;16.00;67.50;;;;;;10327604;28;20057;-55
2023/03/27 16:29:13;;;;;;;16.75;2.05;;;15.90;66.80;;;;;;10329205;28;20033;-54
2023/03/27 16:34:13;;;;;;;11.95;2.00;;;15.70;67.00;;;;;;10323590;28;20026;-55
2023/03/27 16:39:14;;;;;;;10.70;1.70;;;15.50;67.00;;;;;;10328020;28;20042;-54
2023/03/27 16:44:15;;;;;;;16.08;2.63;;;15.40;67.30;;;;;;10321581;28;20129;-55
2023/03/27 16:49:15;;;;;;;5.15;1.40;;;15.40;67.40;;;;;;10325117;28;20705;-54
2023/03/27 16:54:16;;;;;;;24.23;4.43;;;15.30;67.30;;;;;;10325678;28;20025;-55
2023/03/27 16:59:18;;;;;;;13.57;2.25;;;15.40;67.60;;;;;;10325706;28;20742;-55
2023/03/27 17:04:19;;;;;;;10.32;6.30;;;15.30;67.40;;;;;;10325246;28;20050;-56
2023/03/27 17:09:21;;;;;;;14.30;5.88;;;15.40;68.20;;;;;;10324287;28;20097;-56
2023/03/27 17:14:22;;;;;;;13.77;4.38;;;15.70;68.10;;;;;;10326222;28;20037;-55
2023/03/27 17:19:22;;;;;;;15.57;4.75;;;15.80;67.50;;;;;;10326897;28;20033;-55
2023/03/27 17:24:23;;;;;;;15.98;4.65;;;15.80;67.50;;;;;;10324611;28;20034;-56
2023/03/27 17:29:24;;;;;;;14.10;5.75;;;15.80;67.70;;;;;;10325055;28;20145;-54
2023/03/27 17:34:26;;;;;;;13.05;4.10;;;15.70;67.90;;;;;;10323445;28;20114;-59
2023/03/27 17:39:27;;;;;;;14.50;3.25;;;15.70;67.70;;;;;;10322961;28;20368;-55
2023/03/27 17:44:27;;;;;;;10.45;3.17;;;15.50;67.70;;;;;;10321274;28;20030;-55
2023/03/27 17:49:30;;;;;;;12.57;3.75;;;15.40;68.10;;;;;;10323736;28;20036;-56
2023/03/27 17:54:30;;;;;;;10.10;3.30;;;15.30;68.00;;;;;;10325217;28;20102;-55
2023/03/27 17:59:31;;;;;;;13.68;4.32;;;15.30;68.00;;;;;;10329277;28;20520;-53
2023/03/27 18:04:32;;;;;;;9.32;3.08;;;15.40;67.70;;;;;;10324094;28;20062;-56
2023/03/27 18:09:33;;;;;;;9.27;2.90;;;15.70;66.60;;;;;;10323980;28;20029;-55
2023/03/27 18:14:34;;;;;;;6.28;2.53;;;15.80;66.50;;;;;;10324367;28;20468;-54
2023/03/27 18:19:35;;;;;;;7.30;3.05;;;15.80;66.60;;;;;;10323882;28;20157;-54
2023/03/27 18:24:35;;;;;;;10.40;3.38;;;15.70;66.80;;;;;;10323244;28;20123;-54
2023/03/27 18:29:36;;;;;;;7.53;2.60;;;15.90;66.50;;;;;;10322927;28;20504;-55
2023/03/27 18:34:37;;;;;;;5.53;2.58;;;15.90;66.50;;;;;;10322950;28;20054;-55
2023/03/27 18:39:38;;;;;;;9.90;2.25;;;15.90;66.50;;;;;;10321986;28;20112;-54
2023/03/27 18:44:40;;;;;;;8.05;2.85;;;15.90;66.80;;;;;;10322835;28;20084;-55
2023/03/27 18:49:43;;;;;;;5.20;2.17;;;15.80;67.20;;;;;;10318610;28;20206;-56
2023/03/27 18:54:43;;;;;;;7.18;2.55;;;15.80;67.10;;;;;;10322160;28;20030;-55
2023/03/27 18:59:48;;;;;;;10.23;2.20;;;15.80;67.10;;;;;;10331422;28;20032;-56
2023/03/27 19:04:49;;;;;;;8.30;2.63;;;15.80;67.20;;;;;;10323019;28;20050;-56
2023/03/27 19:09:50;;;;;;;6.93;1.70;;;15.80;67.20;;;;;;10319994;28;20023;-56
2023/03/27 19:14:51;;;;;;;5.97;2.00;;;15.70;67.20;;;;;;10320768;28;20050;-55
2023/03/27 19:19:53;;;;;;;8.18;2.17;;;15.70;67.20;;;;;;10304547;28;20026;-56
2023/03/27 19:24:54;;;;;;;7.22;1.90;;;15.70;67.00;;;;;;10324552;28;20035;-55
2023/03/27 19:29:55;;;;;;;7.97;1.70;;;15.70;67.10;;;;;;10328894;28;20097;-56
2023/03/27 19:34:55;;;;;;;4.25;2.17;;;15.60;67.10;;;;;;10328311;28;20177;-56
2023/03/27 19:40:00;;;;;;;6.10;1.60;;;15.60;67.10;;;;;;10328367;28;20105;-56
2023/03/27 19:45:01;;;;;;;6.13;1.70;;;15.50;67.20;;;;;;10329618;28;20137;-56
2023/03/27 19:50:02;;;;;;;4.38;1.67;;;15.50;67.30;;;;;;10330868;28;20392;-56
2023/03/27 19:55:03;;;;;;;4.05;2.05;;;15.50;67.40;;;;;;10328811;28;20114;-55
2023/03/27 20:00:09;;;;;;;3.70;1.27;;;15.40;67.40;;;;;;10340293;28;20165;-55
2023/03/27 20:05:10;;;;;;;3.05;1.50;;;15.40;67.50;;;;;;10328194;28;20543;-56
2023/03/27 20:10:11;;;;;;;5.63;1.65;;;15.30;67.50;;;;;;10312127;28;20054;-56
2023/03/27 20:15:11;;;;;;;3.90;1.42;;;15.30;67.60;;;;;;10329193;28;20031;-54
2023/03/27 20:20:12;;;;;;;4.30;1.90;;;15.30;68.20;;;;;;10329526;28;20061;-56
2023/03/27 20:25:14;;;;;;;4.22;2.00;;;15.20;67.80;;;;;;10328841;28;20040;-56
2023/03/27 20:30:14;;;;;;;3.35;1.30;;;15.20;67.80;;;;;;10329023;28;20018;-56
2023/03/27 20:35:15;;;;;;;5.85;1.75;;;15.10;67.90;;;;;;10328310;28;20027;-56
2023/03/27 20:40:16;;;;;;;4.88;1.50;;;15.10;68.10;;;;;;10328279;28;20096;-56
2023/03/27 20:45:25;;;;;;;4.90;1.60;;;15.10;68.20;;;;;;10328754;28;20424;-56
2023/03/27 20:50:29;;;;;;;7.73;2.97;;;15.00;68.40;;;;;;10327995;28;20362;-56
2023/03/27 20:55:30;;;;;;;4.45;1.40;;;15.00;68.40;;;;;;10328448;28;20158;-56
2023/03/27 21:00:31;;;;;;;2.25;1.00;;;15.00;68.40;;;;;;10338130;28;20546;-56
2023/03/27 21:05:33;;;;;;;2.90;1.65;;;15.00;68.40;;;;;;10327548;28;20126;-56
2023/03/27 21:10:34;;;;;;;2.25;1.15;;;14.90;68.60;;;;;;10326959;28;20058;-56
2023/03/27 21:15:35;;;;;;;3.05;1.77;;;14.90;68.70;;;;;;10327405;28;20062;-54
2023/03/27 21:20:36;;;;;;;5.57;1.60;;;14.90;68.80;;;;;;10326945;28;20105;-56
2023/03/27 21:25:37;;;;;;;4.97;1.58;;;14.80;68.70;;;;;;10327240;28;20462;-56
2023/03/27 21:30:40;;;;;;;7.28;1.40;;;14.80;68.70;;;;;;10325811;28;20027;-56
2023/03/27 21:35:44;;;;;;;2.45;1.23;;;14.80;68.70;;;;;;10326431;28;20023;-56
2023/03/27 21:40:46;;;;;;;2.35;1.30;;;14.80;68.50;;;;;;10325002;28;20022;-56
2023/03/27 21:45:50;;;;;;;3.40;1.40;;;14.80;68.30;;;;;;10325456;28;20624;-56
2023/03/27 21:50:51;;;;;;;2.85;1.15;;;14.80;68.30;;;;;;10325951;28;20030;-56
2023/03/27 21:55:51;;;;;;;3.30;1.23;;;14.80;68.30;;;;;;10326059;28;20046;-56
2023/03/27 22:00:56;;;;;;;2.20;1.10;;;14.80;68.30;;;;;;10335346;28;20038;-56
2023/03/27 22:06:06;;;;;;;5.32;1.10;;;14.70;68.30;;;;;;10324102;28;20035;-55
2023/03/27 22:11:08;;;;;;;3.67;1.85;;;14.70;68.40;;;;;;10325315;28;20014;-56
2023/03/27 22:16:12;;;;;;;2.83;1.05;;;14.70;68.40;;;;;;10324720;28;20026;-56
2023/03/27 22:21:22;;;;;;;3.40;1.10;;;14.70;68.50;;;;;;10324491;28;20030;-55
2023/03/27 22:26:28;;;;;;;2.05;1.10;;;14.70;68.50;;;;;;10324172;28;20489;-54
2023/03/27 22:31:29;;;;;;;1.95;1.08;;;14.70;68.50;;;;;;10323645;28;20018;-56
2023/03/27 22:36:31;;;;;;;2.60;1.00;;;14.60;68.40;;;;;;10324133;28;20027;-56
2023/03/27 22:41:32;;;;;;;1.30;0.65;;;14.60;68.40;;;;;;10324114;28;20022;-56
2023/03/27 22:46:32;;;;;;;2.08;0.77;;;14.60;69.10;;;;;;10324218;28;20026;-57
2023/03/27 22:51:33;;;;;;;2.55;1.20;;;14.60;68.40;;;;;;10323884;28;20085;-56
2023/03/27 22:56:34;;;;;;;3.97;0.98;;;14.60;68.40;;;;;;10324066;28;20161;-56
2023/03/27 23:01:34;;;;;;;2.83;1.00;;;14.60;68.10;;;;;;10333674;28;20859;-55
2023/03/27 23:06:35;;;;;;;3.03;1.15;;;14.60;68.20;;;;;;10322535;28;20023;-55
2023/03/27 23:11:36;;;;;;;1.98;1.08;;;14.60;68.20;;;;;;10323564;28;20108;-56
2023/03/27 23:16:36;;;;;;;2.20;1.00;;;14.50;68.20;;;;;;10323320;28;20029;-56
2023/03/27 23:21:37;;;;;;;1.30;0.73;;;14.50;68.20;;;;;;10322351;28;20041;-55
2023/03/27 23:26:38;;;;;;;3.30;0.88;;;14.50;68.20;;;;;;10321610;28;20050;-55
2023/03/27 23:31:38;;;;;;;1.83;1.10;;;14.50;68.40;;;;;;10323475;28;20044;-56
2023/03/27 23:36:39;;;;;;;2.08;0.80;;;14.50;68.40;;;;;;10322418;28;20076;-55
2023/03/27 23:41:40;;;;;;;2.40;0.90;;;14.40;68.80;;;;;;10322769;28;20121;-55
2023/03/27 23:46:41;;;;;;;1.38;0.70;;;14.50;68.30;;;;;;10322488;28;20022;-55
2023/03/27 23:51:41;;;;;;;2.25;0.75;;;14.40;68.30;;;;;;10322984;28;20659;-55
2023/03/27 23:56:42;;;;;;;2.45;1.23;;;14.40;68.30;;;;;;10322570;28;20077;-55
